Terminal Aerodrome Forecast
Issued by NWS

Home | Current Version | Previous Version | Text Only | Print | Product List | Glossary Off
Versions: 1 2 3 4 5 6 7 8 9 10 11 12 13 14 15 16 17 18 19 20 21 22

771
FTUS43 KMPX 230909 AAA
TAFRWF
TAF AMD
KRWF 230909Z 2309/2406 29006KT P6SM OVC018
      TEMPO 2309/2313 5SM BR
     FM231700 VRB03KT P6SM OVC020
     FM232100 13003KT P6SM OVC023=

USA.gov is the U.S. government's official web portal to all federal, state and local government web resources and services.